Nautical Loredana — D5HY8 — position and weather

sailwx.info

Track history (hours):
 
Tides and Currents Weather Stations Pressure Air Temp Water Temp Dewpoint Dewpoint Depression Visibility Wind Speed Wind Dir Waves Ship Positions

Nautical Loredana

Last reported at 2017-Sep-26 17:08 UTC. Time now 2017-Oct-20 03:07 UTC.
Position N 26°15' W 079°11'.
Warning: this ship's position is 23 days out of date.

Length 199 m; draft 10.2 m.

Type: Ship. MMSI: 636016820.

Date/timePositionNaut miles runAvg speedWind from/ knotsBaromVisibWave heightAir tempDewpointWater temp
2017-Sep-26 17:08N 26°15' W 079°11'413.3
2017-Sep-26 16:51N 26°14' W 079°15'513.6
2017-Sep-26 16:30N 26°12' W 079°20'713.5
2017-Sep-26 16:00N 26°06' W 079°25'714.5
2017-Sep-26 15:30N 25°60' W 079°26'714.5
2017-Sep-26 15:00N 25°52' W 079°28'714.8
2017-Sep-26 14:31N 25°45' W 079°29'714.4
2017-Sep-26 14:00N 25°38' W 079°31'714.0
2017-Sep-26 13:30N 25°31' W 079°32'613.1
2017-Sep-26 13:00N 25°25' W 079°34'814.3
2017-Sep-26 12:26N 25°17' W 079°36'614.3
2017-Sep-26 12:00N 25°11' W 079°37'1614.5
2017-Sep-26 10:55N 24°55' W 079°41'  
2017-Sep-21 10:32N 29°57' W 090°23'012.6
2017-Sep-21 10:30N 29°56' W 090°22'  
Track history (hours):
 
Tides and Currents Weather Stations Pressure Air Temp Water Temp Dewpoint Dewpoint Depression Visibility Wind Speed Wind Dir Waves Ship Positions

Nautical Loredana

Last reported at 2017-Sep-26 17:08 UTC. Time now 2017-Oct-20 03:07 UTC.
Position N 26°15' W 079°11'.
Warning: this ship's position is 23 days out of date.

Length 199 m; draft 10.2 m.

Type: Ship. MMSI: 636016820.

Date/timePositionNaut miles runAvg speedWind from/ knotsBaromVisibWave heightAir tempDewpointWater temp
2017-Sep-26 17:08N 26°15' W 079°11'413.3
2017-Sep-26 16:51N 26°14' W 079°15'513.6
2017-Sep-26 16:30N 26°12' W 079°20'713.5
2017-Sep-26 16:00N 26°06' W 079°25'714.5
2017-Sep-26 15:30N 25°60' W 079°26'714.5
2017-Sep-26 15:00N 25°52' W 079°28'714.8
2017-Sep-26 14:31N 25°45' W 079°29'714.4
2017-Sep-26 14:00N 25°38' W 079°31'714.0
2017-Sep-26 13:30N 25°31' W 079°32'613.1
2017-Sep-26 13:00N 25°25' W 079°34'814.3
2017-Sep-26 12:26N 25°17' W 079°36'614.3
2017-Sep-26 12:00N 25°11' W 079°37'1614.5
2017-Sep-26 10:55N 24°55' W 079°41'  
2017-Sep-21 10:32N 29°57' W 090°23'012.6
2017-Sep-21 10:30N 29°56' W 090°22'  

Dump ship's entire track history